sensor_id;sensor_type;location;lat;lon;timestamp;P1;durP1;ratioP1;P2;durP2;ratioP2
16193;SDS011;8204;53.582;10.080;2023-04-24T00:00:33;6.00;;;5.50;;
16193;SDS011;8204;53.582;10.080;2023-04-24T00:03:06;6.13;;;5.70;;
16193;SDS011;8204;53.582;10.080;2023-04-24T00:05:35;7.03;;;6.53;;
16193;SDS011;8204;53.582;10.080;2023-04-24T00:08:08;7.00;;;6.47;;
16193;SDS011;8204;53.582;10.080;2023-04-24T00:10:37;7.23;;;6.43;;
16193;SDS011;8204;53.582;10.080;2023-04-24T00:13:07;6.63;;;6.13;;
16193;SDS011;8204;53.582;10.080;2023-04-24T00:15:37;6.60;;;6.10;;
16193;SDS011;8204;53.582;10.080;2023-04-24T00:18:06;7.27;;;6.67;;
16193;SDS011;8204;53.582;10.080;2023-04-24T00:20:35;5.97;;;5.57;;
16193;SDS011;8204;53.582;10.080;2023-04-24T00:23:03;7.50;;;6.83;;
16193;SDS011;8204;53.582;10.080;2023-04-24T00:25:35;6.73;;;6.23;;
16193;SDS011;8204;53.582;10.080;2023-04-24T00:28:04;5.50;;;5.10;;
16193;SDS011;8204;53.582;10.080;2023-04-24T00:30:33;6.87;;;6.37;;
16193;SDS011;8204;53.582;10.080;2023-04-24T00:33:01;7.17;;;6.63;;
16193;SDS011;8204;53.582;10.080;2023-04-24T00:35:33;7.57;;;6.87;;
16193;SDS011;8204;53.582;10.080;2023-04-24T00:38:04;6.33;;;5.83;;
16193;SDS011;8204;53.582;10.080;2023-04-24T00:40:37;8.17;;;7.47;;
16193;SDS011;8204;53.582;10.080;2023-04-24T00:43:08;7.33;;;6.83;;
16193;SDS011;8204;53.582;10.080;2023-04-24T00:45:37;7.87;;;7.20;;
16193;SDS011;8204;53.582;10.080;2023-04-24T00:48:06;6.73;;;6.20;;
16193;SDS011;8204;53.582;10.080;2023-04-24T00:50:38;7.43;;;6.93;;
16193;SDS011;8204;53.582;10.080;2023-04-24T00:53:07;8.07;;;7.27;;
16193;SDS011;8204;53.582;10.080;2023-04-24T00:55:38;7.83;;;7.23;;
16193;SDS011;8204;53.582;10.080;2023-04-24T00:58:07;8.40;;;7.80;;
16193;SDS011;8204;53.582;10.080;2023-04-24T01:00:36;7.40;;;6.73;;
16193;SDS011;8204;53.582;10.080;2023-04-24T01:03:05;7.77;;;7.07;;
16193;SDS011;8204;53.582;10.080;2023-04-24T01:05:34;7.63;;;7.03;;
16193;SDS011;8204;53.582;10.080;2023-04-24T01:08:03;8.83;;;8.23;;
16193;SDS011;8204;53.582;10.080;2023-04-24T01:10:32;7.77;;;6.97;;
16193;SDS011;8204;53.582;10.080;2023-04-24T01:13:06;8.87;;;8.17;;
16193;SDS011;8204;53.582;10.080;2023-04-24T01:15:36;7.93;;;7.33;;
16193;SDS011;8204;53.582;10.080;2023-04-24T01:18:05;8.20;;;7.57;;
16193;SDS011;8204;53.582;10.080;2023-04-24T01:20:34;8.00;;;7.40;;
16193;SDS011;8204;53.582;10.080;2023-04-24T01:23:08;8.23;;;7.73;;
16193;SDS011;8204;53.582;10.080;2023-04-24T01:25:37;7.73;;;7.23;;
16193;SDS011;8204;53.582;10.080;2023-04-24T01:28:06;9.13;;;6.70;;
16193;SDS011;8204;53.582;10.080;2023-04-24T01:30:34;7.90;;;7.30;;
16193;SDS011;8204;53.582;10.080;2023-04-24T01:33:03;7.73;;;7.20;;
16193;SDS011;8204;53.582;10.080;2023-04-24T01:35:32;6.63;;;6.23;;
16193;SDS011;8204;53.582;10.080;2023-04-24T01:38:01;7.43;;;6.83;;
16193;SDS011;8204;53.582;10.080;2023-04-24T01:40:33;7.33;;;6.73;;
16193;SDS011;8204;53.582;10.080;2023-04-24T01:43:03;7.40;;;6.80;;
16193;SDS011;8204;53.582;10.080;2023-04-24T01:45:32;6.10;;;5.50;;
16193;SDS011;8204;53.582;10.080;2023-04-24T01:48:00;7.13;;;6.20;;
16193;SDS011;8204;53.582;10.080;2023-04-24T01:50:29;6.50;;;6.00;;
16193;SDS011;8204;53.582;10.080;2023-04-24T01:52:59;5.93;;;5.43;;
16193;SDS011;8204;53.582;10.080;2023-04-24T01:55:28;6.17;;;5.67;;
16193;SDS011;8204;53.582;10.080;2023-04-24T01:58:00;9.83;;;4.73;;
16193;SDS011;8204;53.582;10.080;2023-04-24T02:00:29;5.90;;;5.50;;
16193;SDS011;8204;53.582;10.080;2023-04-24T02:02:58;5.93;;;5.43;;
16193;SDS011;8204;53.582;10.080;2023-04-24T02:05:27;5.80;;;5.40;;
16193;SDS011;8204;53.582;10.080;2023-04-24T02:07:57;6.50;;;6.00;;
16193;SDS011;8204;53.582;10.080;2023-04-24T02:10:26;5.27;;;4.83;;
16193;SDS011;8204;53.582;10.080;2023-04-24T02:12:54;4.87;;;4.57;;
16193;SDS011;8204;53.582;10.080;2023-04-24T02:15:27;5.30;;;4.90;;
16193;SDS011;8204;53.582;10.080;2023-04-24T02:17:57;4.50;;;4.20;;
16193;SDS011;8204;53.582;10.080;2023-04-24T02:20:26;4.33;;;4.03;;
16193;SDS011;8204;53.582;10.080;2023-04-24T02:22:54;4.67;;;4.27;;
16193;SDS011;8204;53.582;10.080;2023-04-24T02:25:23;3.87;;;3.57;;
16193;SDS011;8204;53.582;10.080;2023-04-24T02:27:52;4.40;;;4.10;;
16193;SDS011;8204;53.582;10.080;2023-04-24T02:30:21;4.30;;;4.00;;
16193;SDS011;8204;53.582;10.080;2023-04-24T02:32:52;3.77;;;3.47;;
16193;SDS011;8204;53.582;10.080;2023-04-24T02:35:21;4.37;;;3.77;;
16193;SDS011;8204;53.582;10.080;2023-04-24T02:37:52;3.53;;;3.30;;
16193;SDS011;8204;53.582;10.080;2023-04-24T02:40:21;7.77;;;4.57;;
16193;SDS011;8204;53.582;10.080;2023-04-24T02:42:49;4.20;;;3.90;;
16193;SDS011;8204;53.582;10.080;2023-04-24T02:45:18;4.07;;;3.67;;
16193;SDS011;8204;53.582;10.080;2023-04-24T02:47:47;2.73;;;2.60;;
16193;SDS011;8204;53.582;10.080;2023-04-24T02:50:18;4.57;;;3.37;;
16193;SDS011;8204;53.582;10.080;2023-04-24T02:52:47;3.13;;;2.90;;
16193;SDS011;8204;53.582;10.080;2023-04-24T02:55:16;3.60;;;3.30;;
16193;SDS011;8204;53.582;10.080;2023-04-24T02:57:45;2.60;;;2.40;;
16193;SDS011;8204;53.582;10.080;2023-04-24T03:00:15;3.00;;;2.80;;
16193;SDS011;8204;53.582;10.080;2023-04-24T03:02:44;3.33;;;3.03;;
16193;SDS011;8204;53.582;10.080;2023-04-24T03:05:12;3.10;;;2.90;;
16193;SDS011;8204;53.582;10.080;2023-04-24T03:07:44;2.70;;;2.50;;
16193;SDS011;8204;53.582;10.080;2023-04-24T03:10:13;3.17;;;2.97;;
16193;SDS011;8204;53.582;10.080;2023-04-24T03:12:42;2.80;;;2.60;;
16193;SDS011;8204;53.582;10.080;2023-04-24T03:15:11;2.67;;;2.47;;
16193;SDS011;8204;53.582;10.080;2023-04-24T03:17:39;2.50;;;2.30;;
16193;SDS011;8204;53.582;10.080;2023-04-24T03:20:08;3.13;;;2.67;;
16193;SDS011;8204;53.582;10.080;2023-04-24T03:22:38;2.53;;;2.37;;
16193;SDS011;8204;53.582;10.080;2023-04-24T03:25:09;2.67;;;2.47;;
16193;SDS011;8204;53.582;10.080;2023-04-24T03:27:38;3.10;;;2.83;;
16193;SDS011;8204;53.582;10.080;2023-04-24T03:30:07;3.00;;;2.73;;
16193;SDS011;8204;53.582;10.080;2023-04-24T03:32:37;2.60;;;2.40;;
16193;SDS011;8204;53.582;10.080;2023-04-24T03:35:07;2.90;;;2.20;;
16193;SDS011;8204;53.582;10.080;2023-04-24T03:37:36;2.43;;;2.23;;
16193;SDS011;8204;53.582;10.080;2023-04-24T03:40:06;2.33;;;2.23;;
16193;SDS011;8204;53.582;10.080;2023-04-24T03:42:38;1.87;;;1.70;;
16193;SDS011;8204;53.582;10.080;2023-04-24T03:45:07;1.80;;;1.70;;
16193;SDS011;8204;53.582;10.080;2023-04-24T03:47:37;2.13;;;2.00;;
16193;SDS011;8204;53.582;10.080;2023-04-24T03:50:06;2.07;;;1.97;;
16193;SDS011;8204;53.582;10.080;2023-04-24T03:52:36;2.37;;;2.27;;
16193;SDS011;8204;53.582;10.080;2023-04-24T03:55:06;1.87;;;1.77;;
16193;SDS011;8204;53.582;10.080;2023-04-24T03:57:39;2.53;;;2.43;;
16193;SDS011;8204;53.582;10.080;2023-04-24T04:00:08;2.50;;;2.20;;
16193;SDS011;8204;53.582;10.080;2023-04-24T04:02:38;4.13;;;2.60;;
16193;SDS011;8204;53.582;10.080;2023-04-24T04:05:07;1.93;;;1.83;;
16193;SDS011;8204;53.582;10.080;2023-04-24T04:07:36;2.63;;;2.43;;
16193;SDS011;8204;53.582;10.080;2023-04-24T04:10:05;2.90;;;1.90;;
16193;SDS011;8204;53.582;10.080;2023-04-24T04:12:38;2.07;;;1.97;;
16193;SDS011;8204;53.582;10.080;2023-04-24T04:15:07;2.83;;;2.63;;
16193;SDS011;8204;53.582;10.080;2023-04-24T04:17:36;2.37;;;2.03;;
16193;SDS011;8204;53.582;10.080;2023-04-24T04:20:06;2.93;;;2.17;;
16193;SDS011;8204;53.582;10.080;2023-04-24T04:22:36;2.40;;;2.30;;
16193;SDS011;8204;53.582;10.080;2023-04-24T04:25:05;3.67;;;2.43;;
16193;SDS011;8204;53.582;10.080;2023-04-24T04:27:37;2.20;;;2.10;;
16193;SDS011;8204;53.582;10.080;2023-04-24T04:30:07;4.30;;;2.20;;
16193;SDS011;8204;53.582;10.080;2023-04-24T04:32:36;2.37;;;2.17;;
16193;SDS011;8204;53.582;10.080;2023-04-24T04:35:05;2.57;;;2.10;;
16193;SDS011;8204;53.582;10.080;2023-04-24T04:37:35;2.13;;;2.03;;
16193;SDS011;8204;53.582;10.080;2023-04-24T04:40:04;2.10;;;1.93;;
16193;SDS011;8204;53.582;10.080;2023-04-24T04:42:37;1.90;;;1.80;;
16193;SDS011;8204;53.582;10.080;2023-04-24T04:45:07;3.67;;;2.63;;
16193;SDS011;8204;53.582;10.080;2023-04-24T04:47:38;1.80;;;1.70;;
16193;SDS011;8204;53.582;10.080;2023-04-24T04:50:07;3.37;;;1.90;;
16193;SDS011;8204;53.582;10.080;2023-04-24T04:52:36;3.87;;;2.47;;
16193;SDS011;8204;53.582;10.080;2023-04-24T04:55:06;4.53;;;2.23;;
16193;SDS011;8204;53.582;10.080;2023-04-24T04:57:37;2.03;;;1.93;;
16193;SDS011;8204;53.582;10.080;2023-04-24T05:00:07;2.43;;;2.23;;
16193;SDS011;8204;53.582;10.080;2023-04-24T05:02:38;1.93;;;1.83;;
16193;SDS011;8204;53.582;10.080;2023-04-24T05:05:07;1.80;;;1.70;;
16193;SDS011;8204;53.582;10.080;2023-04-24T05:07:36;2.20;;;2.10;;
16193;SDS011;8204;53.582;10.080;2023-04-24T05:10:06;2.00;;;1.90;;
16193;SDS011;8204;53.582;10.080;2023-04-24T05:12:38;2.07;;;1.97;;
16193;SDS011;8204;53.582;10.080;2023-04-24T05:15:08;2.00;;;1.90;;
16193;SDS011;8204;53.582;10.080;2023-04-24T05:17:37;1.30;;;1.30;;
16193;SDS011;8204;53.582;10.080;2023-04-24T05:20:06;2.10;;;1.80;;
16193;SDS011;8204;53.582;10.080;2023-04-24T05:22:38;2.10;;;1.90;;
16193;SDS011;8204;53.582;10.080;2023-04-24T05:25:07;2.00;;;1.80;;
16193;SDS011;8204;53.582;10.080;2023-04-24T05:27:40;1.87;;;1.53;;
16193;SDS011;8204;53.582;10.080;2023-04-24T05:30:10;2.00;;;1.57;;
16193;SDS011;8204;53.582;10.080;2023-04-24T05:32:40;4.00;;;1.77;;
16193;SDS011;8204;53.582;10.080;2023-04-24T05:35:12;1.63;;;1.53;;
16193;SDS011;8204;53.582;10.080;2023-04-24T05:37:40;1.50;;;1.40;;
16193;SDS011;8204;53.582;10.080;2023-04-24T05:40:10;4.30;;;1.40;;
16193;SDS011;8204;53.582;10.080;2023-04-24T05:42:41;1.50;;;1.27;;
16193;SDS011;8204;53.582;10.080;2023-04-24T05:45:11;1.93;;;1.20;;
16193;SDS011;8204;53.582;10.080;2023-04-24T05:47:42;1.50;;;1.37;;
16193;SDS011;8204;53.582;10.080;2023-04-24T05:50:12;1.87;;;1.70;;
16193;SDS011;8204;53.582;10.080;2023-04-24T05:52:41;2.70;;;1.50;;
16193;SDS011;8204;53.582;10.080;2023-04-24T05:55:10;1.90;;;1.80;;
16193;SDS011;8204;53.582;10.080;2023-04-24T05:57:39;1.57;;;1.47;;
16193;SDS011;8204;53.582;10.080;2023-04-24T06:00:10;1.67;;;1.57;;
16193;SDS011;8204;53.582;10.080;2023-04-24T06:02:40;1.47;;;1.30;;
16193;SDS011;8204;53.582;10.080;2023-04-24T06:05:10;1.60;;;1.50;;
16193;SDS011;8204;53.582;10.080;2023-04-24T06:07:38;1.73;;;1.63;;
16193;SDS011;8204;53.582;10.080;2023-04-24T06:10:07;1.77;;;1.50;;
16193;SDS011;8204;53.582;10.080;2023-04-24T06:12:37;1.73;;;1.60;;
16193;SDS011;8204;53.582;10.080;2023-04-24T06:15:09;1.93;;;1.83;;
16193;SDS011;8204;53.582;10.080;2023-04-24T06:17:38;5.67;;;2.13;;
16193;SDS011;8204;53.582;10.080;2023-04-24T06:20:07;1.87;;;1.77;;
16193;SDS011;8204;53.582;10.080;2023-04-24T06:22:37;1.60;;;1.50;;
16193;SDS011;8204;53.582;10.080;2023-04-24T06:25:06;1.93;;;1.83;;
16193;SDS011;8204;53.582;10.080;2023-04-24T06:27:36;2.23;;;2.13;;
16193;SDS011;8204;53.582;10.080;2023-04-24T06:30:22;2.63;;;2.40;;
16193;SDS011;8204;53.582;10.080;2023-04-24T06:32:52;2.43;;;1.90;;
16193;SDS011;8204;53.582;10.080;2023-04-24T06:35:21;2.70;;;2.50;;
16193;SDS011;8204;53.582;10.080;2023-04-24T06:37:50;4.63;;;1.93;;
16193;SDS011;8204;53.582;10.080;2023-04-24T06:40:21;2.27;;;2.07;;
16193;SDS011;8204;53.582;10.080;2023-04-24T06:42:51;2.27;;;2.17;;
16193;SDS011;8204;53.582;10.080;2023-04-24T06:45:22;2.40;;;2.20;;
16193;SDS011;8204;53.582;10.080;2023-04-24T06:47:51;2.20;;;1.80;;
16193;SDS011;8204;53.582;10.080;2023-04-24T06:50:20;2.60;;;2.40;;
16193;SDS011;8204;53.582;10.080;2023-04-24T06:52:48;3.70;;;2.70;;
16193;SDS011;8204;53.582;10.080;2023-04-24T06:55:17;2.47;;;2.27;;
16193;SDS011;8204;53.582;10.080;2023-04-24T06:57:46;2.93;;;2.57;;
16193;SDS011;8204;53.582;10.080;2023-04-24T07:00:15;2.73;;;2.53;;
16193;SDS011;8204;53.582;10.080;2023-04-24T07:02:47;2.27;;;2.07;;
16193;SDS011;8204;53.582;10.080;2023-04-24T07:05:15;2.33;;;2.23;;
16193;SDS011;8204;53.582;10.080;2023-04-24T07:07:45;2.93;;;2.73;;
16193;SDS011;8204;53.582;10.080;2023-04-24T07:10:15;3.37;;;3.07;;
16193;SDS011;8204;53.582;10.080;2023-04-24T07:12:45;3.00;;;2.80;;
16193;SDS011;8204;53.582;10.080;2023-04-24T07:15:14;2.93;;;2.73;;
16193;SDS011;8204;53.582;10.080;2023-04-24T07:17:43;4.23;;;3.10;;
16193;SDS011;8204;53.582;10.080;2023-04-24T07:20:15;2.90;;;2.70;;
16193;SDS011;8204;53.582;10.080;2023-04-24T07:22:44;4.23;;;3.33;;
16193;SDS011;8204;53.582;10.080;2023-04-24T07:25:17;3.23;;;3.03;;
16193;SDS011;8204;53.582;10.080;2023-04-24T07:27:46;3.93;;;3.53;;
16193;SDS011;8204;53.582;10.080;2023-04-24T07:30:15;4.50;;;3.20;;
16193;SDS011;8204;53.582;10.080;2023-04-24T07:32:44;3.67;;;3.37;;
16193;SDS011;8204;53.582;10.080;2023-04-24T07:35:15;3.13;;;2.93;;
16193;SDS011;8204;53.582;10.080;2023-04-24T07:37:45;3.37;;;3.17;;
16193;SDS011;8204;53.582;10.080;2023-04-24T07:40:14;3.30;;;2.90;;
16193;SDS011;8204;53.582;10.080;2023-04-24T07:42:44;3.40;;;3.10;;
16193;SDS011;8204;53.582;10.080;2023-04-24T07:45:14;5.37;;;4.97;;
16193;SDS011;8204;53.582;10.080;2023-04-24T07:47:43;4.47;;;4.17;;
16193;SDS011;8204;53.582;10.080;2023-04-24T07:50:14;4.07;;;3.67;;
16193;SDS011;8204;53.582;10.080;2023-04-24T07:52:43;4.97;;;4.03;;
16193;SDS011;8204;53.582;10.080;2023-04-24T07:55:12;3.97;;;3.67;;
16193;SDS011;8204;53.582;10.080;2023-04-24T07:57:41;3.43;;;3.13;;
16193;SDS011;8204;53.582;10.080;2023-04-24T08:00:10;4.70;;;4.30;;
16193;SDS011;8204;53.582;10.080;2023-04-24T08:02:39;4.50;;;4.20;;
16193;SDS011;8204;53.582;10.080;2023-04-24T08:05:08;4.13;;;3.73;;
16193;SDS011;8204;53.582;10.080;2023-04-24T08:07:40;4.00;;;3.70;;
16193;SDS011;8204;53.582;10.080;2023-04-24T08:10:11;5.33;;;4.93;;
16193;SDS011;8204;53.582;10.080;2023-04-24T08:12:40;5.23;;;4.83;;
16193;SDS011;8204;53.582;10.080;2023-04-24T08:15:10;5.20;;;4.77;;
16193;SDS011;8204;53.582;10.080;2023-04-24T08:17:39;5.27;;;4.93;;
16193;SDS011;8204;53.582;10.080;2023-04-24T08:20:08;5.10;;;4.63;;
16193;SDS011;8204;53.582;10.080;2023-04-24T08:22:42;5.83;;;5.30;;
16193;SDS011;8204;53.582;10.080;2023-04-24T08:25:12;5.73;;;5.33;;
16193;SDS011;8204;53.582;10.080;2023-04-24T08:27:41;5.07;;;4.77;;
16193;SDS011;8204;53.582;10.080;2023-04-24T08:30:11;4.30;;;4.00;;
16193;SDS011;8204;53.582;10.080;2023-04-24T08:32:40;5.13;;;4.73;;
16193;SDS011;8204;53.582;10.080;2023-04-24T08:35:09;5.00;;;4.63;;
16193;SDS011;8204;53.582;10.080;2023-04-24T08:37:38;5.10;;;4.70;;
16193;SDS011;8204;53.582;10.080;2023-04-24T08:40:10;6.27;;;5.87;;
16193;SDS011;8204;53.582;10.080;2023-04-24T08:42:41;6.97;;;6.43;;
16193;SDS011;8204;53.582;10.080;2023-04-24T08:45:11;6.17;;;5.67;;
16193;SDS011;8204;53.582;10.080;2023-04-24T08:47:41;5.93;;;5.43;;
16193;SDS011;8204;53.582;10.080;2023-04-24T08:50:10;7.27;;;6.67;;
16193;SDS011;8204;53.582;10.080;2023-04-24T08:52:40;6.87;;;6.47;;
16193;SDS011;8204;53.582;10.080;2023-04-24T08:55:13;9.97;;;6.67;;
16193;SDS011;8204;53.582;10.080;2023-04-24T08:57:44;6.50;;;6.10;;
16193;SDS011;8204;53.582;10.080;2023-04-24T09:00:15;5.97;;;5.57;;
16193;SDS011;8204;53.582;10.080;2023-04-24T09:02:45;7.63;;;6.20;;
16193;SDS011;8204;53.582;10.080;2023-04-24T09:05:16;6.27;;;5.80;;
16193;SDS011;8204;53.582;10.080;2023-04-24T09:07:54;6.03;;;5.63;;
16193;SDS011;8204;53.582;10.080;2023-04-24T09:10:27;5.53;;;5.20;;
16193;SDS011;8204;53.582;10.080;2023-04-24T09:12:56;7.43;;;6.77;;
16193;SDS011;8204;53.582;10.080;2023-04-24T09:15:27;6.73;;;6.23;;
16193;SDS011;8204;53.582;10.080;2023-04-24T09:17:56;6.73;;;6.23;;
16193;SDS011;8204;53.582;10.080;2023-04-24T09:20:25;7.20;;;6.67;;
16193;SDS011;8204;53.582;10.080;2023-04-24T09:22:54;7.20;;;6.30;;
16193;SDS011;8204;53.582;10.080;2023-04-24T09:25:30;6.10;;;5.60;;
16193;SDS011;8204;53.582;10.080;2023-04-24T09:28:02;6.87;;;6.27;;
16193;SDS011;8204;53.582;10.080;2023-04-24T09:30:32;6.37;;;5.87;;
16193;SDS011;8204;53.582;10.080;2023-04-24T09:33:09;6.23;;;5.73;;
16193;SDS011;8204;53.582;10.080;2023-04-24T09:35:40;7.20;;;6.70;;
16193;SDS011;8204;53.582;10.080;2023-04-24T09:38:14;7.40;;;6.80;;
16193;SDS011;8204;53.582;10.080;2023-04-24T09:40:45;7.80;;;7.10;;
16193;SDS011;8204;53.582;10.080;2023-04-24T09:43:14;9.00;;;7.47;;
16193;SDS011;8204;53.582;10.080;2023-04-24T09:45:43;8.23;;;7.50;;
16193;SDS011;8204;53.582;10.080;2023-04-24T09:48:12;8.80;;;8.10;;
16193;SDS011;8204;53.582;10.080;2023-04-24T09:50:45;10.17;;;8.13;;
16193;SDS011;8204;53.582;10.080;2023-04-24T09:53:15;7.93;;;7.23;;
16193;SDS011;8204;53.582;10.080;2023-04-24T09:55:47;6.63;;;6.23;;
16193;SDS011;8204;53.582;10.080;2023-04-24T09:58:16;8.10;;;7.47;;
16193;SDS011;8204;53.582;10.080;2023-04-24T10:00:45;7.30;;;6.80;;
16193;SDS011;8204;53.582;10.080;2023-04-24T10:03:14;7.87;;;7.30;;
16193;SDS011;8204;53.582;10.080;2023-04-24T10:05:42;7.87;;;7.17;;
16193;SDS011;8204;53.582;10.080;2023-04-24T10:08:14;6.60;;;6.20;;
16193;SDS011;8204;53.582;10.080;2023-04-24T10:10:44;8.33;;;7.73;;
16193;SDS011;8204;53.582;10.080;2023-04-24T10:13:16;8.93;;;8.33;;
16193;SDS011;8204;53.582;10.080;2023-04-24T10:15:44;8.00;;;7.40;;
16193;SDS011;8204;53.582;10.080;2023-04-24T10:18:14;8.73;;;8.03;;
16193;SDS011;8204;53.582;10.080;2023-04-24T10:20:47;8.90;;;8.20;;
16193;SDS011;8204;53.582;10.080;2023-04-24T10:23:16;9.67;;;8.93;;
16193;SDS011;8204;53.582;10.080;2023-04-24T10:25:47;9.20;;;8.30;;
16193;SDS011;8204;53.582;10.080;2023-04-24T10:28:18;9.47;;;8.57;;
16193;SDS011;8204;53.582;10.080;2023-04-24T10:30:48;9.83;;;8.87;;
16193;SDS011;8204;53.582;10.080;2023-04-24T10:33:21;9.93;;;9.23;;
16193;SDS011;8204;53.582;10.080;2023-04-24T10:35:51;9.00;;;8.30;;
16193;SDS011;8204;53.582;10.080;2023-04-24T10:38:21;12.03;;;10.47;;
16193;SDS011;8204;53.582;10.080;2023-04-24T10:40:59;9.87;;;9.07;;
16193;SDS011;8204;53.582;10.080;2023-04-24T10:43:41;11.43;;;10.33;;
16193;SDS011;8204;53.582;10.080;2023-04-24T10:46:16;10.37;;;9.47;;
16193;SDS011;8204;53.582;10.080;2023-04-24T10:48:52;11.83;;;10.83;;
16193;SDS011;8204;53.582;10.080;2023-04-24T10:51:23;13.07;;;11.70;;
16193;SDS011;8204;53.582;10.080;2023-04-24T10:53:53;12.97;;;11.87;;
16193;SDS011;8204;53.582;10.080;2023-04-24T10:56:24;13.10;;;12.00;;
16193;SDS011;8204;53.582;10.080;2023-04-24T10:58:54;11.80;;;10.70;;
16193;SDS011;8204;53.582;10.080;2023-04-24T11:01:23;14.67;;;12.53;;
16193;SDS011;8204;53.582;10.080;2023-04-24T11:03:54;13.73;;;12.63;;
16193;SDS011;8204;53.582;10.080;2023-04-24T11:06:30;12.90;;;11.80;;
16193;SDS011;8204;53.582;10.080;2023-04-24T11:09:02;12.73;;;11.57;;
16193;SDS011;8204;53.582;10.080;2023-04-24T11:11:36;13.43;;;12.13;;
16193;SDS011;8204;53.582;10.080;2023-04-24T11:14:07;13.00;;;11.80;;
16193;SDS011;8204;53.582;10.080;2023-04-24T11:16:42;14.20;;;12.90;;
16193;SDS011;8204;53.582;10.080;2023-04-24T11:19:20;14.13;;;12.87;;
16193;SDS011;8204;53.582;10.080;2023-04-24T11:21:55;12.20;;;11.00;;
16193;SDS011;8204;53.582;10.080;2023-04-24T11:24:26;14.63;;;13.23;;
16193;SDS011;8204;53.582;10.080;2023-04-24T11:27:06;14.57;;;12.50;;
16193;SDS011;8204;53.582;10.080;2023-04-24T11:29:40;11.77;;;10.87;;
16193;SDS011;8204;53.582;10.080;2023-04-24T11:32:14;10.90;;;10.03;;
16193;SDS011;8204;53.582;10.080;2023-04-24T11:34:45;12.03;;;11.13;;
16193;SDS011;8204;53.582;10.080;2023-04-24T11:37:15;14.77;;;12.83;;
16193;SDS011;8204;53.582;10.080;2023-04-24T11:39:44;12.53;;;11.47;;
16193;SDS011;8204;53.582;10.080;2023-04-24T11:42:16;14.00;;;12.53;;
16193;SDS011;8204;53.582;10.080;2023-04-24T11:44:46;11.87;;;10.87;;
16193;SDS011;8204;53.582;10.080;2023-04-24T11:47:17;12.47;;;11.47;;
16193;SDS011;8204;53.582;10.080;2023-04-24T11:49:46;12.20;;;11.20;;
16193;SDS011;8204;53.582;10.080;2023-04-24T11:52:19;12.27;;;11.17;;
16193;SDS011;8204;53.582;10.080;2023-04-24T11:54:48;12.60;;;11.30;;
16193;SDS011;8204;53.582;10.080;2023-04-24T11:57:21;10.57;;;9.67;;
16193;SDS011;8204;53.582;10.080;2023-04-24T11:59:53;9.40;;;8.60;;
16193;SDS011;8204;53.582;10.080;2023-04-24T12:02:22;9.50;;;8.70;;
16193;SDS011;8204;53.582;10.080;2023-04-24T12:04:53;9.20;;;8.40;;
16193;SDS011;8204;53.582;10.080;2023-04-24T12:07:22;8.80;;;8.00;;
16193;SDS011;8204;53.582;10.080;2023-04-24T12:09:55;8.90;;;8.07;;
16193;SDS011;8204;53.582;10.080;2023-04-24T12:12:28;8.23;;;7.57;;
16193;SDS011;8204;53.582;10.080;2023-04-24T12:14:57;8.77;;;7.97;;
16193;SDS011;8204;53.582;10.080;2023-04-24T12:17:27;8.33;;;7.57;;
16193;SDS011;8204;53.582;10.080;2023-04-24T12:19:57;9.13;;;8.33;;
16193;SDS011;8204;53.582;10.080;2023-04-24T12:22:28;8.60;;;7.63;;
16193;SDS011;8204;53.582;10.080;2023-04-24T12:25:13;8.17;;;7.57;;
16193;SDS011;8204;53.582;10.080;2023-04-24T12:27:45;9.30;;;8.37;;
16193;SDS011;8204;53.582;10.080;2023-04-24T12:30:16;7.73;;;7.00;;
16193;SDS011;8204;53.582;10.080;2023-04-24T12:32:45;7.17;;;6.57;;
16193;SDS011;8204;53.582;10.080;2023-04-24T12:35:18;7.07;;;6.47;;
16193;SDS011;8204;53.582;10.080;2023-04-24T12:37:48;9.10;;;7.63;;
16193;SDS011;8204;53.582;10.080;2023-04-24T12:40:18;7.50;;;6.90;;
16193;SDS011;8204;53.582;10.080;2023-04-24T12:42:50;9.03;;;8.23;;
16193;SDS011;8204;53.582;10.080;2023-04-24T12:45:19;8.77;;;8.03;;
16193;SDS011;8204;53.582;10.080;2023-04-24T12:47:50;8.50;;;7.80;;
16193;SDS011;8204;53.582;10.080;2023-04-24T12:50:19;8.40;;;7.70;;
16193;SDS011;8204;53.582;10.080;2023-04-24T12:52:48;8.83;;;8.03;;
16193;SDS011;8204;53.582;10.080;2023-04-24T12:55:17;8.83;;;8.03;;
16193;SDS011;8204;53.582;10.080;2023-04-24T12:57:45;8.10;;;7.40;;
16193;SDS011;8204;53.582;10.080;2023-04-24T13:00:17;7.50;;;6.63;;
16193;SDS011;8204;53.582;10.080;2023-04-24T13:02:49;7.20;;;6.57;;
16193;SDS011;8204;53.582;10.080;2023-04-24T13:05:18;7.50;;;6.90;;
16193;SDS011;8204;53.582;10.080;2023-04-24T13:07:47;6.23;;;5.83;;
16193;SDS011;8204;53.582;10.080;2023-04-24T13:10:16;6.37;;;5.87;;
16193;SDS011;8204;53.582;10.080;2023-04-24T13:12:45;5.63;;;5.13;;
16193;SDS011;8204;53.582;10.080;2023-04-24T13:15:16;5.53;;;5.03;;
16193;SDS011;8204;53.582;10.080;2023-04-24T13:17:45;6.17;;;5.67;;
16193;SDS011;8204;53.582;10.080;2023-04-24T13:20:14;6.70;;;6.17;;
16193;SDS011;8204;53.582;10.080;2023-04-24T13:22:43;8.07;;;6.43;;
16193;SDS011;8204;53.582;10.080;2023-04-24T13:25:11;7.13;;;6.63;;
16193;SDS011;8204;53.582;10.080;2023-04-24T13:27:42;7.50;;;6.90;;
16193;SDS011;8204;53.582;10.080;2023-04-24T13:30:11;6.27;;;5.83;;
16193;SDS011;8204;53.582;10.080;2023-04-24T13:32:43;6.70;;;6.20;;
16193;SDS011;8204;53.582;10.080;2023-04-24T13:35:12;7.97;;;7.30;;
16193;SDS011;8204;53.582;10.080;2023-04-24T13:37:41;6.60;;;6.10;;
16193;SDS011;8204;53.582;10.080;2023-04-24T13:40:11;7.20;;;6.50;;
16193;SDS011;8204;53.582;10.080;2023-04-24T13:42:39;6.80;;;6.33;;
16193;SDS011;8204;53.582;10.080;2023-04-24T13:45:09;6.97;;;6.27;;
16193;SDS011;8204;53.582;10.080;2023-04-24T13:47:42;6.93;;;6.30;;
16193;SDS011;8204;53.582;10.080;2023-04-24T13:50:11;6.70;;;6.10;;
16193;SDS011;8204;53.582;10.080;2023-04-24T13:52:40;6.87;;;6.20;;
16193;SDS011;8204;53.582;10.080;2023-04-24T13:55:09;6.07;;;5.57;;
16193;SDS011;8204;53.582;10.080;2023-04-24T13:57:38;6.57;;;6.17;;
16193;SDS011;8204;53.582;10.080;2023-04-24T14:00:07;6.40;;;5.80;;
16193;SDS011;8204;53.582;10.080;2023-04-24T14:02:37;8.17;;;6.33;;
16193;SDS011;8204;53.582;10.080;2023-04-24T14:05:09;6.90;;;6.40;;
16193;SDS011;8204;53.582;10.080;2023-04-24T14:07:40;7.20;;;6.67;;
16193;SDS011;8204;53.582;10.080;2023-04-24T14:10:10;7.27;;;6.57;;
16193;SDS011;8204;53.582;10.080;2023-04-24T14:12:39;7.43;;;6.90;;
16193;SDS011;8204;53.582;10.080;2023-04-24T14:15:08;7.67;;;7.10;;
16193;SDS011;8204;53.582;10.080;2023-04-24T14:17:39;7.60;;;6.90;;
16193;SDS011;8204;53.582;10.080;2023-04-24T14:20:11;7.47;;;6.97;;
16193;SDS011;8204;53.582;10.080;2023-04-24T14:22:40;7.27;;;6.67;;
16193;SDS011;8204;53.582;10.080;2023-04-24T14:25:10;7.63;;;6.90;;
16193;SDS011;8204;53.582;10.080;2023-04-24T14:27:39;7.10;;;6.50;;
16193;SDS011;8204;53.582;10.080;2023-04-24T14:30:08;9.40;;;6.93;;
16193;SDS011;8204;53.582;10.080;2023-04-24T14:32:39;7.57;;;7.00;;
16193;SDS011;8204;53.582;10.080;2023-04-24T14:35:10;7.20;;;6.67;;
16193;SDS011;8204;53.582;10.080;2023-04-24T14:37:40;6.13;;;5.73;;
16193;SDS011;8204;53.582;10.080;2023-04-24T14:40:10;7.63;;;7.03;;
16193;SDS011;8204;53.582;10.080;2023-04-24T14:42:40;6.77;;;6.27;;
16193;SDS011;8204;53.582;10.080;2023-04-24T14:45:09;6.60;;;6.00;;
16193;SDS011;8204;53.582;10.080;2023-04-24T14:47:39;5.90;;;5.43;;
16193;SDS011;8204;53.582;10.080;2023-04-24T14:50:10;5.77;;;5.37;;
16193;SDS011;8204;53.582;10.080;2023-04-24T14:52:39;5.53;;;5.20;;
16193;SDS011;8204;53.582;10.080;2023-04-24T14:55:08;5.03;;;4.67;;
16193;SDS011;8204;53.582;10.080;2023-04-24T14:57:37;6.10;;;5.60;;
16193;SDS011;8204;53.582;10.080;2023-04-24T15:00:07;7.70;;;7.13;;
16193;SDS011;8204;53.582;10.080;2023-04-24T15:02:37;8.10;;;7.50;;